Time;durP1;ratioP1;P1;durP2;ratioP2;P2;SDS_P1;SDS_P2;PMS_P1;PMS_P2;Temp;Humidity;BMP_temperature;BMP_pressure;BME280_temperature;BME280_humidity;BME280_pressure;Samples;Min_cycle;Max_cycle;Signal;HPM_P1;HPM_P2
2022/04/30 00:05:18;;;;;;;2.78;1.60;;;14.70;58.60;;;;;;20642450;28;20034;-73
2022/04/30 00:15:20;;;;;;;4.57;1.45;;;14.70;58.50;;;;;;20584770;28;20093;-74
2022/04/30 00:25:21;;;;;;;3.03;1.50;;;14.70;58.50;;;;;;20584411;28;20041;-74
2022/04/30 00:35:22;;;;;;;2.22;1.40;;;14.60;58.40;;;;;;20598157;28;20089;-74
2022/04/30 00:45:22;;;;;;;2.33;1.77;;;14.60;58.50;;;;;;20565305;28;20074;-73
2022/04/30 00:55:23;;;;;;;2.53;1.45;;;14.60;58.40;;;;;;20581632;28;20752;-74
2022/04/30 01:05:24;;;;;;;1.88;1.35;;;14.60;58.50;;;;;;20579880;28;20117;-75
2022/04/30 01:15:25;;;;;;;3.13;1.95;;;14.60;58.50;;;;;;20660155;28;20129;-76
2022/04/30 01:25:26;;;;;;;3.25;1.38;;;14.60;58.40;;;;;;20642566;28;20034;-75
2022/04/30 01:45:45;;;;;;;1.50;1.25;;;14.60;58.50;;;;;;20644275;28;20030;-74
2022/04/30 01:55:46;;;;;;;2.57;1.30;;;14.60;58.50;;;;;;20625506;28;20053;-76
2022/04/30 02:05:58;;;;;;;1.70;1.35;;;14.60;58.60;;;;;;20613887;28;20282;-76
2022/04/30 02:15:59;;;;;;;1.50;1.00;;;14.50;58.50;;;;;;20650717;28;20520;-74
2022/04/30 02:26:04;;;;;;;4.47;1.40;;;14.50;58.60;;;;;;20656785;28;20125;-74
2022/04/30 02:36:05;;;;;;;3.25;1.45;;;14.50;58.60;;;;;;21005795;23;20488;-72
2022/04/30 02:46:05;;;;;;;1.52;1.23;;;14.50;58.60;;;;;;20530865;28;20042;-71
2022/04/30 02:56:06;;;;;;;4.63;1.20;;;14.50;58.70;;;;;;20559366;28;20134;-74
2022/04/30 03:06:07;;;;;;;2.67;1.25;;;14.50;58.70;;;;;;20558181;28;20030;-71
2022/04/30 03:26:28;;;;;;;1.77;0.90;;;14.50;58.80;;;;;;20561879;28;20499;-72
2022/04/30 03:36:29;;;;;;;1.05;0.93;;;14.50;58.80;;;;;;20572663;28;20101;-71
2022/04/30 03:46:30;;;;;;;4.18;1.45;;;14.50;58.80;;;;;;20555643;28;20035;-71
2022/04/30 03:56:31;;;;;;;3.70;1.17;;;14.50;58.80;;;;;;20554448;28;20397;-71
2022/04/30 04:06:32;;;;;;;2.80;1.25;;;14.40;58.80;;;;;;20586945;28;20045;-71
2022/04/30 04:26:52;;;;;;;2.30;1.33;;;14.40;58.90;;;;;;20585898;28;20121;-74
2022/04/30 04:36:52;;;;;;;2.75;1.70;;;14.40;58.90;;;;;;20566360;28;20050;-75
2022/04/30 04:46:53;;;;;;;3.10;1.90;;;14.40;59.00;;;;;;20567185;28;20033;-73
2022/04/30 04:56:54;;;;;;;1.58;0.90;;;14.40;59.00;;;;;;20566480;28;20039;-72
2022/04/30 05:06:54;;;;;;;4.30;1.25;;;14.40;59.10;;;;;;20581434;28;20114;-71
2022/04/30 05:16:55;;;;;;;4.15;1.35;;;14.40;59.10;;;;;;20564727;28;20046;-71
2022/04/30 05:26:55;;;;;;;2.50;1.70;;;14.40;59.10;;;;;;20580068;28;20038;-73
2022/04/30 05:36:56;;;;;;;4.43;1.33;;;14.40;59.10;;;;;;20563088;28;20085;-72
2022/04/30 05:46:57;;;;;;;3.65;1.23;;;14.30;59.10;;;;;;20563108;28;20468;-71
2022/04/30 05:56:57;;;;;;;2.63;1.50;;;14.30;59.10;;;;;;20562432;28;20050;-71
2022/04/30 06:07:01;;;;;;;1.65;0.95;;;14.30;59.20;;;;;;20561991;28;20138;-71
2022/04/30 06:17:01;;;;;;;2.40;1.23;;;14.40;59.20;;;;;;20546893;28;20205;-72
2022/04/30 06:27:02;;;;;;;1.23;1.00;;;14.40;59.30;;;;;;20569373;28;20122;-71
2022/04/30 06:37:03;;;;;;;7.22;1.83;;;14.40;59.30;;;;;;20575357;28;20371;-77
2022/04/30 06:47:03;;;;;;;8.05;1.90;;;14.30;59.30;;;;;;20542226;28;20042;-70
2022/04/30 06:57:08;;;;;;;6.63;1.63;;;14.30;59.20;;;;;;20548296;28;20477;-70
2022/04/30 07:07:09;;;;;;;4.47;1.38;;;14.30;59.10;;;;;;20494449;28;20037;-70
2022/04/30 07:17:11;;;;;;;3.97;1.17;;;14.30;59.10;;;;;;20492794;29;20482;-68
2022/04/30 07:27:12;;;;;;;4.22;1.27;;;14.30;59.10;;;;;;20499862;28;20050;-69
2022/04/30 07:37:13;;;;;;;2.17;1.40;;;14.30;59.10;;;;;;20537257;28;20042;-66
2022/04/30 07:47:13;;;;;;;4.28;1.48;;;14.30;59.10;;;;;;20553795;28;20333;-73
2022/04/30 07:57:14;;;;;;;3.45;1.48;;;14.30;59.10;;;;;;20521343;28;20046;-70
2022/04/30 08:07:15;;;;;;;2.97;1.30;;;14.30;59.20;;;;;;20565518;28;20587;-70
2022/04/30 08:17:15;;;;;;;4.97;1.42;;;14.40;59.20;;;;;;20529316;28;20333;-69
2022/04/30 08:27:16;;;;;;;7.65;1.10;;;14.40;59.30;;;;;;20550328;28;20541;-69
2022/04/30 08:37:17;;;;;;;1.63;1.10;;;14.30;59.10;;;;;;20530730;28;20065;-69
2022/04/30 08:47:18;;;;;;;3.25;1.30;;;14.40;59.20;;;;;;20533755;28;20047;-74
2022/04/30 08:57:20;;;;;;;3.03;0.98;;;14.40;59.20;;;;;;20515865;28;20041;-72
2022/04/30 09:07:22;;;;;;;2.92;1.23;;;14.40;59.20;;;;;;20548902;28;20041;-72
2022/04/30 09:17:25;;;;;;;4.18;1.15;;;14.40;59.20;;;;;;20547163;28;20047;-73
2022/04/30 09:27:25;;;;;;;4.18;1.17;;;14.40;59.10;;;;;;20545026;28;20041;-73
2022/04/30 09:37:42;;;;;;;4.90;1.40;;;14.40;59.00;;;;;;20539417;28;20313;-72
2022/04/30 09:47:42;;;;;;;4.87;1.30;;;14.40;59.00;;;;;;20517608;28;20038;-70
2022/04/30 09:57:43;;;;;;;3.50;1.35;;;14.40;59.00;;;;;;20529684;28;20573;-70
2022/04/30 10:07:43;;;;;;;2.55;1.30;;;14.40;58.90;;;;;;20528694;28;20429;-69
2022/04/30 10:17:47;;;;;;;2.78;1.17;;;14.40;58.80;;;;;;20529213;28;20129;-67
2022/04/30 10:27:48;;;;;;;2.13;1.20;;;14.40;58.70;;;;;;20565246;28;20114;-69
2022/04/30 10:37:49;;;;;;;4.60;1.38;;;14.40;58.60;;;;;;20567794;28;20039;-68
2022/04/30 10:47:51;;;;;;;5.45;1.67;;;14.40;58.50;;;;;;20575529;28;20043;-67
2022/04/30 10:57:52;;;;;;;3.20;1.10;;;14.40;58.40;;;;;;20591030;28;20186;-67
2022/04/30 11:07:52;;;;;;;7.28;1.65;;;14.50;58.40;;;;;;20561416;28;20158;-68
2022/04/30 11:17:53;;;;;;;3.05;0.95;;;14.40;58.10;;;;;;20530331;28;20043;-73
2022/04/30 11:27:58;;;;;;;2.25;1.13;;;14.50;58.20;;;;;;20528694;28;20027;-70
2022/04/30 11:37:58;;;;;;;4.10;1.15;;;14.50;58.10;;;;;;20552120;28;20054;-72
2022/04/30 11:47:59;;;;;;;2.83;1.20;;;14.50;58.10;;;;;;20569425;28;20031;-69
2022/04/30 11:58:02;;;;;;;5.10;1.50;;;14.50;58.10;;;;;;20551247;28;20392;-73
2022/04/30 12:08:04;;;;;;;2.05;0.90;;;14.50;58.10;;;;;;20544240;28;20027;-68
2022/04/30 12:28:25;;;;;;;7.07;1.17;;;14.50;57.90;;;;;;20554887;28;20401;-69
2022/04/30 12:38:29;;;;;;;4.75;1.67;;;14.50;57.90;;;;;;20565340;28;20165;-70
2022/04/30 12:48:33;;;;;;;3.33;0.93;;;14.60;58.00;;;;;;20549332;28;20039;-70
2022/04/30 12:58:34;;;;;;;2.47;1.00;;;14.60;57.80;;;;;;20547914;28;20405;-69
2022/04/30 13:18:53;;;;;;;3.45;1.42;;;14.60;57.10;;;;;;20564949;28;20398;-72
2022/04/30 13:28:54;;;;;;;4.75;0.98;;;14.70;57.10;;;;;;20546867;28;20038;-71
2022/04/30 13:38:55;;;;;;;3.55;1.05;;;14.70;57.10;;;;;;20531008;28;20154;-71
2022/04/30 13:48:56;;;;;;;3.10;0.93;;;14.80;57.20;;;;;;20561755;28;20034;-71
2022/04/30 13:58:58;;;;;;;3.83;0.80;;;14.80;57.20;;;;;;20529875;28;20091;-72
2022/04/30 14:08:58;;;;;;;3.85;0.90;;;14.90;57.20;;;;;;20566041;28;20049;-81
2022/04/30 14:18:59;;;;;;;1.45;0.70;;;14.90;57.10;;;;;;20546765;28;20039;-77
2022/04/30 14:28:59;;;;;;;1.55;0.80;;;15.00;57.30;;;;;;20562211;28;20050;-77
2022/04/30 14:39:02;;;;;;;1.25;0.88;;;15.00;57.30;;;;;;20546133;28;20074;-74
2022/04/30 14:49:02;;;;;;;2.17;0.80;;;15.10;57.30;;;;;;20546672;28;20043;-74
2022/04/30 14:59:03;;;;;;;2.58;1.00;;;15.10;57.10;;;;;;20543098;28;20045;-72
2022/04/30 15:09:04;;;;;;;5.30;0.75;;;15.20;57.10;;;;;;20558437;28;20097;-73
2022/04/30 15:19:05;;;;;;;5.60;1.70;;;15.20;57.10;;;;;;20572375;28;20523;-72
2022/04/30 15:29:06;;;;;;;11.35;1.73;;;15.20;57.10;;;;;;20541155;28;20033;-71
2022/04/30 15:39:06;;;;;;;5.05;0.93;;;15.20;57.00;;;;;;20525597;28;20147;-76
2022/04/30 15:59:26;;;;;;;2.22;1.58;;;15.20;57.10;;;;;;20553867;28;20658;-72
2022/04/30 16:09:27;;;;;;;10.40;1.60;;;15.20;57.10;;;;;;20583753;28;20097;-71
2022/04/30 16:19:27;;;;;;;10.35;1.55;;;15.10;57.10;;;;;;20537030;28;20453;-71
2022/04/30 16:29:29;;;;;;;3.05;0.90;;;15.10;57.10;;;;;;20549739;28;20069;-73
2022/04/30 16:39:29;;;;;;;0.77;0.70;;;15.10;57.20;;;;;;20533521;28;20069;-73
2022/04/30 16:49:30;;;;;;;1.13;0.63;;;15.10;57.40;;;;;;20564258;28;20490;-71
2022/04/30 16:59:31;;;;;;;4.93;1.13;;;15.00;58.10;;;;;;20533961;28;20039;-72
2022/04/30 17:09:32;;;;;;;5.05;1.02;;;15.00;57.50;;;;;;20454314;28;20044;-76
2022/04/30 17:19:33;;;;;;;1.73;0.75;;;15.00;57.60;;;;;;20504656;28;20038;-72
2022/04/30 17:29:34;;;;;;;2.30;0.98;;;15.00;58.20;;;;;;20517954;28;20027;-70
2022/04/30 17:39:34;;;;;;;1.67;1.53;;;15.00;57.80;;;;;;20562582;28;20053;-75
2022/04/30 17:49:37;;;;;;;1.02;0.70;;;15.00;57.80;;;;;;20531540;28;20333;-73
2022/04/30 17:59:37;;;;;;;1.90;0.70;;;14.90;57.90;;;;;;20546208;28;20050;-74
2022/04/30 18:09:38;;;;;;;1.40;0.88;;;14.90;57.90;;;;;;20531052;28;20097;-74
2022/04/30 18:19:39;;;;;;;1.50;0.70;;;15.00;58.00;;;;;;20545124;28;20054;-73
2022/04/30 18:29:40;;;;;;;1.63;0.75;;;14.90;58.00;;;;;;20545230;28;20026;-73
2022/04/30 18:39:41;;;;;;;2.83;0.90;;;14.90;58.10;;;;;;20545007;28;20436;-73
2022/04/30 18:49:41;;;;;;;1.20;0.73;;;14.90;58.10;;;;;;20529590;28;20039;-74
2022/04/30 19:10:05;;;;;;;1.98;0.93;;;14.90;58.30;;;;;;20563591;28;20034;-73
2022/04/30 19:20:06;;;;;;;2.13;0.98;;;14.90;58.30;;;;;;20557169;28;20049;-74
2022/04/30 19:30:08;;;;;;;5.80;0.73;;;14.90;58.50;;;;;;20557344;28;20035;-74
2022/04/30 19:40:09;;;;;;;2.35;1.05;;;14.90;58.60;;;;;;20524056;28;20061;-74
2022/04/30 19:50:09;;;;;;;2.72;0.70;;;14.80;58.60;;;;;;20554410;28;20110;-73
2022/04/30 20:00:10;;;;;;;1.90;0.82;;;14.90;58.80;;;;;;20586311;28;20122;-72
2022/04/30 20:20:30;;;;;;;0.60;0.32;;;14.80;58.80;;;;;;20569762;28;20035;-72
2022/04/30 20:30:30;;;;;;;1.00;0.50;;;14.80;58.80;;;;;;20547257;28;20045;-72
2022/04/30 20:40:31;;;;;;;3.92;0.65;;;14.80;58.80;;;;;;20548555;28;20035;-72
2022/04/30 20:50:32;;;;;;;1.70;0.73;;;14.80;58.80;;;;;;20551050;28;20129;-74
2022/04/30 21:00:33;;;;;;;1.33;0.70;;;14.80;58.90;;;;;;20549057;28;20121;-73
2022/04/30 21:10:33;;;;;;;2.17;0.95;;;14.80;58.90;;;;;;20547758;28;20081;-73
2022/04/30 21:20:34;;;;;;;1.08;0.73;;;14.80;58.90;;;;;;20531330;28;20392;-74
2022/04/30 21:30:36;;;;;;;1.08;0.80;;;14.80;58.80;;;;;;20580848;28;20038;-72
2022/04/30 21:50:56;;;;;;;1.08;0.82;;;14.80;58.90;;;;;;20548520;28;20500;-74
2022/04/30 22:01:04;;;;;;;0.90;0.60;;;14.70;58.80;;;;;;20545844;28;20121;-73
2022/04/30 22:11:05;;;;;;;0.82;0.50;;;14.70;58.80;;;;;;20529313;28;20035;-73
2022/04/30 22:21:06;;;;;;;0.85;0.65;;;14.70;58.80;;;;;;20529140;28;20085;-73
2022/04/30 22:31:06;;;;;;;1.65;1.20;;;14.70;58.80;;;;;;20551184;28;20134;-73
2022/04/30 22:51:26;;;;;;;1.95;1.00;;;14.70;58.90;;;;;;20563768;28;20101;-73
2022/04/30 23:01:26;;;;;;;0.97;0.70;;;14.70;58.90;;;;;;20591598;28;20529;-72
2022/04/30 23:11:27;;;;;;;3.20;0.80;;;14.70;58.90;;;;;;20541945;28;20317;-73
2022/04/30 23:21:27;;;;;;;1.38;0.73;;;14.70;59.00;;;;;;20556671;28;20035;-73
2022/04/30 23:31:28;;;;;;;1.00;0.70;;;14.70;59.00;;;;;;20556601;28;20053;-74
2022/04/30 23:41:29;;;;;;;2.28;0.88;;;14.70;59.10;;;;;;20573163;28;20243;-72
2022/04/30 23:51:29;;;;;;;0.93;0.80;;;14.70;59.10;;;;;;20554774;28;20047;-72
